Time;durP1;ratioP1;P1;durP2;ratioP2;P2;SDS_P1;SDS_P2;PMS_P1;PMS_P2;Temp;Humidity;BMP_temperature;BMP_pressure;BME280_temperature;BME280_humidity;BME280_pressure;Samples;Min_cycle;Max_cycle;Signal;HPM_P1;HPM_P2
2021/06/02 00:01:55;;;;;;;0.40;0.30;;;16.30;72.40;;;;;;5022081;28;20387;-77
2021/06/02 00:04:24;;;;;;;0.40;0.20;;;16.20;70.50;;;;;;5008661;28;20520;-74
2021/06/02 00:06:52;;;;;;;0.40;0.20;;;16.10;71.30;;;;;;5012191;28;20483;-80
2021/06/02 00:09:18;;;;;;;0.40;0.30;;;16.10;71.10;;;;;;5002193;28;20700;-76
2021/06/02 00:11:44;;;;;;;0.40;0.20;;;16.00;73.10;;;;;;5013537;28;20389;-77
2021/06/02 00:14:10;;;;;;;0.40;0.20;;;16.00;72.20;;;;;;5017393;28;20387;-78
2021/06/02 00:16:36;;;;;;;0.40;0.20;;;15.90;72.10;;;;;;5000443;28;20759;-76
2021/06/02 00:19:02;;;;;;;0.40;0.30;;;15.90;74.30;;;;;;5018696;28;20538;-76
2021/06/02 00:21:28;;;;;;;0.40;0.30;;;15.70;73.90;;;;;;5016759;28;20397;-76
2021/06/02 00:23:54;;;;;;;0.40;0.20;;;15.60;73.20;;;;;;5009995;28;20384;-76
2021/06/02 00:26:21;;;;;;;0.40;0.20;;;15.50;75.10;;;;;;5013462;28;20452;-79
2021/06/02 00:28:48;;;;;;;0.40;0.20;;;15.60;76.50;;;;;;5021834;28;20441;-74
2021/06/02 00:31:15;;;;;;;0.40;0.30;;;15.50;76.40;;;;;;5010279;28;20678;-74
2021/06/02 00:33:41;;;;;;;0.40;0.30;;;15.30;75.10;;;;;;5020241;28;20381;-74
2021/06/02 00:36:07;;;;;;;0.40;0.30;;;15.30;77.40;;;;;;5012019;28;20488;-77
2021/06/02 00:38:34;;;;;;;0.40;0.20;;;15.30;77.00;;;;;;5026042;28;20387;-75
2021/06/02 00:41:02;;;;;;;0.40;0.30;;;15.20;77.00;;;;;;5009688;28;20532;-75
2021/06/02 00:43:28;;;;;;;0.40;0.30;;;15.10;77.90;;;;;;5010586;28;20910;-75
2021/06/02 00:45:54;;;;;;;0.40;0.30;;;15.10;78.40;;;;;;5010650;28;20486;-74
2021/06/02 00:48:20;;;;;;;0.40;0.30;;;15.00;80.00;;;;;;5009970;28;21023;-74
2021/06/02 00:50:50;;;;;;;0.50;0.30;;;15.00;82.30;;;;;;5011085;28;20780;-75
2021/06/02 00:53:17;;;;;;;0.40;0.30;;;15.00;80.00;;;;;;5014000;28;20391;-75
2021/06/02 00:55:43;;;;;;;0.40;0.30;;;15.00;81.60;;;;;;4996876;28;20766;-74
2021/06/02 00:58:15;;;;;;;0.40;0.30;;;14.80;81.50;;;;;;5013555;28;20388;-74
2021/06/02 01:00:42;;;;;;;0.40;0.20;;;14.80;81.90;;;;;;5014352;28;20389;-74
2021/06/02 01:03:10;;;;;;;0.40;0.20;;;14.70;82.30;;;;;;5013808;28;20384;-75
2021/06/02 01:05:36;;;;;;;0.40;0.20;;;14.60;82.50;;;;;;5014400;28;20384;-74
2021/06/02 01:08:04;;;;;;;0.40;0.30;;;14.80;83.10;;;;;;5013680;28;20396;-78
2021/06/02 01:10:30;;;;;;;0.40;0.30;;;14.60;83.80;;;;;;5014266;28;20407;-75
2021/06/02 01:13:00;;;;;;;0.40;0.30;;;14.40;84.70;;;;;;4996683;28;20456;-75
2021/06/02 01:15:26;;;;;;;0.40;0.20;;;14.40;87.80;;;;;;5013513;28;20413;-75
2021/06/02 01:17:52;;;;;;;0.40;0.30;;;14.50;85.60;;;;;;4996411;28;20902;-76
2021/06/02 01:20:19;;;;;;;0.40;0.30;;;14.30;86.10;;;;;;5013076;28;20388;-75
2021/06/02 01:22:46;;;;;;;0.40;0.20;;;14.10;87.80;;;;;;5014138;28;20388;-75
2021/06/02 01:25:17;;;;;;;0.40;0.30;;;14.00;89.30;;;;;;5013405;28;20385;-75
2021/06/02 01:27:44;;;;;;;0.40;0.20;;;14.10;88.50;;;;;;5014112;28;20684;-76
2021/06/02 01:30:19;;;;;;;0.40;0.30;;;14.00;90.30;;;;;;5013268;28;20387;-75
2021/06/02 01:33:03;;;;;;;0.40;0.20;;;14.00;89.00;;;;;;5014059;28;20416;-75
2021/06/02 01:35:55;;;;;;;0.40;0.30;;;14.00;90.50;;;;;;5013740;28;20408;-75
2021/06/02 01:38:45;;;;;;;0.40;0.30;;;14.00;89.90;;;;;;4995441;28;20407;-75
2021/06/02 01:41:26;;;;;;;0.40;0.20;;;14.10;89.60;;;;;;5013286;28;20385;-75
2021/06/02 01:44:32;;;;;;;0.40;0.30;;;14.10;89.00;;;;;;5013710;28;20432;-75
2021/06/02 01:47:24;;;;;;;0.40;0.30;;;13.80;90.90;;;;;;5002195;28;20405;-75
2021/06/02 01:50:27;;;;;;;0.40;0.20;;;13.80;91.10;;;;;;5013880;28;20736;-75
2021/06/02 01:53:11;;;;;;;0.40;0.30;;;13.80;91.70;;;;;;5013291;28;20894;-75
2021/06/02 01:56:06;;;;;;;0.40;0.20;;;13.80;91.30;;;;;;5013039;28;20899;-75
2021/06/02 01:58:41;;;;;;;0.40;0.30;;;13.70;91.30;;;;;;5013441;28;20756;-76
2021/06/02 02:01:32;;;;;;;0.40;0.20;;;13.60;91.90;;;;;;5012960;28;20381;-77
2021/06/02 02:04:33;;;;;;;0.40;0.20;;;13.60;92.90;;;;;;5005650;28;20777;-76
2021/06/02 02:07:38;;;;;;;0.40;0.20;;;13.80;93.00;;;;;;5013173;28;20396;-76
2021/06/02 02:10:28;;;;;;;0.40;0.30;;;13.60;91.80;;;;;;5004622;28;20413;-74
2021/06/02 02:13:29;;;;;;;0.40;0.30;;;13.50;92.60;;;;;;5013348;28;20405;-75
2021/06/02 02:16:22;;;;;;;0.40;0.30;;;13.40;92.50;;;;;;5012935;28;20562;-74
2021/06/02 02:18:56;;;;;;;0.40;0.30;;;13.40;92.70;;;;;;5013169;28;20476;-76
2021/06/02 02:21:28;;;;;;;0.40;0.20;;;13.30;93.10;;;;;;4994785;28;20480;-76
2021/06/02 02:23:58;;;;;;;0.40;0.30;;;13.20;93.50;;;;;;4995234;28;20829;-76
2021/06/02 02:26:38;;;;;;;0.40;0.30;;;13.20;94.00;;;;;;5012501;28;20744;-75
2021/06/02 02:29:26;;;;;;;0.40;0.30;;;13.30;93.60;;;;;;5012845;28;20400;-75
2021/06/02 02:32:13;;;;;;;0.40;0.28;;;13.20;93.80;;;;;;5012655;28;20939;-75
2021/06/02 02:34:56;;;;;;;0.40;0.30;;;13.30;93.60;;;;;;5012864;28;20752;-75
2021/06/02 02:37:37;;;;;;;0.40;0.30;;;13.30;94.20;;;;;;5012107;28;20415;-74
2021/06/02 02:40:29;;;;;;;0.40;0.20;;;13.30;94.30;;;;;;5012595;28;20381;-74
2021/06/02 02:42:54;;;;;;;0.40;0.20;;;13.20;94.20;;;;;;4990842;28;20879;-74
2021/06/02 02:45:41;;;;;;;0.40;0.20;;;13.20;95.10;;;;;;5011603;28;20377;-75
2021/06/02 02:48:25;;;;;;;0.40;0.20;;;13.20;94.10;;;;;;5012196;28;20716;-74
2021/06/02 02:51:03;;;;;;;0.40;0.30;;;13.20;94.10;;;;;;4994773;28;20393;-74
2021/06/02 02:53:58;;;;;;;0.40;0.20;;;13.20;95.20;;;;;;4994349;28;20875;-73
2021/06/02 02:57:01;;;;;;;0.57;0.57;;;13.20;94.90;;;;;;5011806;28;20435;-74
2021/06/02 02:59:43;;;;;;;0.40;0.30;;;13.20;94.80;;;;;;5011640;28;20411;-74
2021/06/02 03:03:02;;;;;;;0.40;0.30;;;13.00;95.80;;;;;;5012279;28;20384;-78
2021/06/02 03:05:31;;;;;;;0.40;0.20;;;13.00;96.90;;;;;;4970170;28;20471;-73
2021/06/02 03:08:23;;;;;;;0.40;0.30;;;13.10;96.70;;;;;;5004217;28;20407;-74
2021/06/02 03:11:03;;;;;;;0.40;0.30;;;13.20;95.60;;;;;;5006622;28;20492;-74
2021/06/02 03:13:36;;;;;;;0.40;0.20;;;13.20;95.40;;;;;;5011671;28;20411;-74
2021/06/02 03:16:08;;;;;;;0.40;0.20;;;13.10;96.10;;;;;;5011179;28;20420;-74
2021/06/02 03:19:07;;;;;;;0.40;0.30;;;13.10;96.40;;;;;;5011480;28;20434;-74
2021/06/02 03:22:02;;;;;;;0.40;0.20;;;13.20;96.50;;;;;;5010487;28;20412;-75
2021/06/02 03:24:47;;;;;;;0.40;0.30;;;13.10;95.50;;;;;;5011245;28;20403;-75
2021/06/02 03:27:20;;;;;;;0.40;0.20;;;12.90;96.30;;;;;;5011567;28;20389;-74
2021/06/02 03:30:05;;;;;;;0.40;0.20;;;12.90;96.30;;;;;;5011490;28;20385;-74
2021/06/02 03:32:43;;;;;;;0.40;0.30;;;12.90;96.90;;;;;;5011164;28;20504;-75
2021/06/02 03:35:14;;;;;;;0.40;0.30;;;13.00;98.00;;;;;;4993942;28;20910;-75
2021/06/02 03:37:58;;;;;;;0.40;0.20;;;13.10;97.00;;;;;;5011868;28;20396;-75
2021/06/02 03:41:08;;;;;;;0.40;0.20;;;13.10;96.00;;;;;;5010997;28;20396;-76
2021/06/02 03:43:47;;;;;;;0.40;0.30;;;13.00;95.70;;;;;;5011061;28;20817;-76
2021/06/02 03:46:18;;;;;;;0.40;0.20;;;12.90;98.50;;;;;;5010905;28;20459;-76
2021/06/02 03:49:03;;;;;;;0.40;0.30;;;13.00;97.00;;;;;;4993741;28;20397;-76
2021/06/02 03:51:57;;;;;;;0.40;0.30;;;13.00;96.60;;;;;;4993031;28;20413;-76
2021/06/02 03:54:51;;;;;;;0.40;0.30;;;12.80;97.40;;;;;;5010870;28;20385;-76
2021/06/02 03:57:27;;;;;;;0.40;0.30;;;12.80;98.80;;;;;;5010977;28;20409;-76
2021/06/02 04:00:10;;;;;;;0.40;0.20;;;12.80;97.30;;;;;;5011603;28;20389;-76
2021/06/02 04:02:55;;;;;;;0.40;0.20;;;12.80;97.80;;;;;;5029074;28;20894;-76
2021/06/02 04:05:40;;;;;;;0.40;0.30;;;12.80;98.30;;;;;;5013024;28;20432;-76
2021/06/02 04:08:17;;;;;;;0.40;0.30;;;12.90;98.30;;;;;;5031754;28;20382;-76
2021/06/02 04:11:06;;;;;;;0.40;0.20;;;12.90;98.10;;;;;;5031588;28;20411;-75
2021/06/02 04:13:41;;;;;;;0.40;0.30;;;12.80;98.20;;;;;;5012633;28;20477;-75
2021/06/02 04:16:13;;;;;;;0.40;0.30;;;12.80;98.60;;;;;;5030821;28;20878;-74
2021/06/02 04:18:42;;;;;;;0.40;0.30;;;12.70;98.20;;;;;;5030998;28;20394;-74
2021/06/02 04:21:08;;;;;;;0.40;0.20;;;12.80;97.90;;;;;;5031003;28;20385;-74
2021/06/02 04:23:38;;;;;;;0.40;0.30;;;12.70;99.20;;;;;;5030237;28;20422;-75
2021/06/02 04:26:04;;;;;;;0.40;0.30;;;12.80;99.40;;;;;;5030864;28;20390;-74
2021/06/02 04:28:35;;;;;;;0.40;0.30;;;12.80;99.10;;;;;;5030094;28;20876;-74
2021/06/02 04:31:06;;;;;;;0.40;0.28;;;12.80;99.50;;;;;;5031305;28;20777;-75
2021/06/02 04:33:34;;;;;;;0.40;0.30;;;13.00;98.70;;;;;;5012731;28;20400;-74
2021/06/02 04:36:03;;;;;;;0.40;0.30;;;12.80;99.70;;;;;;5030573;28;20421;-74
2021/06/02 04:38:30;;;;;;;0.40;0.20;;;13.00;98.80;;;;;;5030337;28;20387;-75
2021/06/02 04:40:59;;;;;;;0.40;0.20;;;12.80;98.80;;;;;;5030815;28;20383;-75
2021/06/02 04:43:26;;;;;;;0.40;0.20;;;12.90;98.30;;;;;;5030613;28;20462;-75
2021/06/02 04:46:00;;;;;;;0.40;0.20;;;13.00;98.70;;;;;;5030939;28;20491;-75
2021/06/02 04:48:26;;;;;;;0.40;0.30;;;12.90;98.70;;;;;;5030279;28;20379;-75
2021/06/02 04:51:38;;;;;;;0.40;0.20;;;12.90;99.40;;;;;;5030609;28;20474;-75
2021/06/02 04:54:43;;;;;;;0.40;0.20;;;13.10;97.30;;;;;;4987903;28;20533;-75
2021/06/02 04:57:39;;;;;;;0.40;0.30;;;13.30;97.40;;;;;;5030543;28;20411;-75
2021/06/02 05:00:16;;;;;;;0.40;0.30;;;13.30;97.10;;;;;;5030885;28;20391;-75
2021/06/02 05:03:07;;;;;;;0.40;0.20;;;13.50;95.20;;;;;;5011261;28;20743;-75
2021/06/02 05:05:52;;;;;;;0.40;0.30;;;13.60;95.00;;;;;;5010151;28;20759;-76
2021/06/02 05:09:06;;;;;;;0.40;0.30;;;13.70;95.60;;;;;;5010523;28;20396;-76
2021/06/02 05:11:56;;;;;;;0.40;0.20;;;13.80;94.40;;;;;;4989136;28;20456;-75
2021/06/02 05:14:40;;;;;;;0.40;0.20;;;13.80;96.50;;;;;;5010370;28;20388;-75
2021/06/02 05:17:31;;;;;;;0.40;0.30;;;13.90;95.40;;;;;;5010531;28;20409;-74
2021/06/02 05:20:26;;;;;;;0.40;0.20;;;13.90;95.70;;;;;;5010995;28;20423;-75
2021/06/02 05:23:04;;;;;;;0.40;0.25;;;13.90;96.40;;;;;;5010630;28;20725;-75
2021/06/02 05:25:50;;;;;;;0.40;0.30;;;14.00;96.30;;;;;;5010379;28;20419;-74
2021/06/02 05:28:35;;;;;;;0.40;0.20;;;14.00;97.10;;;;;;5011598;28;20392;-74
2021/06/02 05:31:19;;;;;;;0.40;0.30;;;14.00;97.30;;;;;;4993332;28;20395;-74
2021/06/02 05:34:22;;;;;;;0.40;0.30;;;14.20;97.80;;;;;;5011209;28;20736;-77
2021/06/02 05:37:15;;;;;;;0.40;0.20;;;14.30;97.00;;;;;;5011209;28;20416;-75
2021/06/02 05:40:11;;;;;;;0.40;0.20;;;14.30;98.70;;;;;;5013672;28;20416;-75
2021/06/02 05:42:57;;;;;;;0.40;0.30;;;14.40;99.90;;;;;;5014224;28;20887;-75
2021/06/02 05:45:42;;;;;;;0.40;0.30;;;14.50;99.10;;;;;;5014485;28;20413;-76
2021/06/02 05:48:25;;;;;;;0.40;0.20;;;14.50;98.20;;;;;;5014475;28;20384;-75
2021/06/02 05:50:54;;;;;;;0.40;0.30;;;14.60;99.90;;;;;;5018011;28;20531;-76
2021/06/02 05:53:28;;;;;;;0.40;0.30;;;14.70;99.90;;;;;;5016762;28;20689;-81
2021/06/02 05:56:35;;;;;;;0.40;0.30;;;14.90;97.50;;;;;;5013883;28;20412;-75
2021/06/02 05:59:49;;;;;;;0.40;0.20;;;15.00;97.60;;;;;;4966942;28;20480;-74
2021/06/02 06:02:42;;;;;;;0.40;0.30;;;15.30;95.60;;;;;;5028443;28;20441;-75
2021/06/02 06:05:19;;;;;;;0.40;0.30;;;15.30;96.70;;;;;;5016351;28;20530;-75
2021/06/02 06:08:20;;;;;;;0.40;0.30;;;15.50;97.60;;;;;;5033205;28;20379;-75
2021/06/02 06:10:55;;;;;;;0.40;0.30;;;15.60;94.40;;;;;;5033424;28;20446;-73
2021/06/02 06:13:51;;;;;;;0.40;0.30;;;15.70;94.30;;;;;;5034481;28;20395;-77
2021/06/02 06:16:34;;;;;;;0.40;0.20;;;15.80;94.50;;;;;;5033472;28;20765;-76
2021/06/02 06:19:38;;;;;;;0.40;0.20;;;15.80;95.00;;;;;;5033408;28;20395;-75
2021/06/02 06:22:09;;;;;;;0.40;0.20;;;15.90;96.90;;;;;;5033346;28;20405;-74
2021/06/02 06:24:39;;;;;;;0.40;0.30;;;16.00;95.20;;;;;;5032977;28;20414;-73
2021/06/02 06:27:34;;;;;;;0.40;0.20;;;16.10;94.60;;;;;;5033630;28;20386;-75
2021/06/02 06:30:22;;;;;;;0.40;0.30;;;16.30;94.00;;;;;;5033517;28;20392;-74
2021/06/02 06:32:52;;;;;;;0.40;0.30;;;16.40;93.70;;;;;;5032880;28;20387;-74
2021/06/02 06:35:19;;;;;;;0.40;0.20;;;16.50;93.50;;;;;;5032631;28;20387;-74
2021/06/02 06:37:47;;;;;;;0.40;0.20;;;16.50;94.20;;;;;;5031811;28;20635;-77
2021/06/02 06:40:26;;;;;;;0.40;0.20;;;16.60;94.00;;;;;;5032777;28;20884;-75
2021/06/02 06:42:56;;;;;;;0.40;0.20;;;16.70;94.50;;;;;;5034402;28;20552;-75
2021/06/02 06:45:27;;;;;;;0.40;0.20;;;16.80;93.40;;;;;;5032394;28;20387;-73
2021/06/02 06:47:53;;;;;;;0.40;0.20;;;16.90;94.40;;;;;;5022642;28;20393;-73
2021/06/02 06:50:20;;;;;;;0.40;0.20;;;17.00;92.70;;;;;;5017336;28;20391;-73
2021/06/02 06:52:58;;;;;;;0.40;0.30;;;17.20;92.30;;;;;;5011068;28;21128;-73
2021/06/02 06:55:24;;;;;;;0.40;0.20;;;17.30;93.30;;;;;;5011610;28;20479;-77
2021/06/02 06:57:51;;;;;;;0.40;0.30;;;17.40;91.60;;;;;;5011179;28;20476;-72
2021/06/02 07:00:17;;;;;;;0.40;0.30;;;17.40;91.60;;;;;;5011968;28;20396;-73
2021/06/02 07:02:44;;;;;;;0.40;0.30;;;17.60;91.40;;;;;;5029783;28;21196;-73
2021/06/02 07:05:11;;;;;;;0.40;0.20;;;17.60;92.00;;;;;;5031512;28;20835;-73
2021/06/02 07:07:41;;;;;;;0.40;0.30;;;17.70;90.60;;;;;;5030467;28;20387;-72
2021/06/02 07:10:08;;;;;;;0.40;0.20;;;17.70;90.70;;;;;;5031524;28;20384;-73
2021/06/02 07:12:39;;;;;;;0.40;0.20;;;17.80;90.40;;;;;;5012910;28;20407;-73
2021/06/02 07:15:07;;;;;;;0.40;0.30;;;17.90;88.20;;;;;;5031769;28;20379;-73
2021/06/02 07:17:38;;;;;;;0.40;0.30;;;18.00;87.90;;;;;;5030312;28;20611;-73
2021/06/02 07:20:05;;;;;;;0.40;0.30;;;18.10;86.80;;;;;;5030860;28;20422;-73
2021/06/02 07:22:31;;;;;;;0.40;0.20;;;18.20;81.00;;;;;;5031036;28;20418;-72
2021/06/02 07:24:58;;;;;;;0.40;0.30;;;18.40;78.90;;;;;;5031487;28;20390;-72
2021/06/02 07:27:26;;;;;;;0.40;0.30;;;18.50;79.50;;;;;;5031271;28;20727;-73
2021/06/02 07:29:52;;;;;;;0.40;0.30;;;18.60;77.80;;;;;;5030969;28;20486;-72
2021/06/02 07:32:18;;;;;;;0.40;0.20;;;19.00;76.50;;;;;;5031106;28;20422;-72
2021/06/02 07:34:43;;;;;;;0.40;0.30;;;19.10;76.10;;;;;;5031072;28;20388;-73
2021/06/02 07:37:10;;;;;;;0.40;0.30;;;19.50;74.90;;;;;;5031640;28;20407;-73
2021/06/02 07:39:36;;;;;;;0.40;0.30;;;19.70;72.80;;;;;;5013732;28;20400;-73
2021/06/02 07:42:03;;;;;;;0.40;0.20;;;19.90;70.70;;;;;;5011855;28;20430;-73
2021/06/02 07:44:29;;;;;;;0.40;0.30;;;19.90;71.50;;;;;;5010732;28;20518;-76
2021/06/02 07:46:55;;;;;;;0.40;0.30;;;19.90;71.20;;;;;;5011269;28;20395;-74
2021/06/02 07:49:20;;;;;;;0.40;0.30;;;19.90;71.30;;;;;;5030491;28;20469;-72
2021/06/02 07:51:51;;;;;;;0.40;0.20;;;20.20;71.20;;;;;;5031897;28;20410;-74
2021/06/02 07:54:18;;;;;;;0.40;0.30;;;20.30;69.90;;;;;;5032014;28;20949;-72
2021/06/02 07:56:44;;;;;;;0.40;0.30;;;20.30;69.20;;;;;;5030114;28;20411;-72
2021/06/02 07:59:10;;;;;;;0.40;0.20;;;20.40;69.00;;;;;;5031416;28;20388;-71
2021/06/02 08:01:35;;;;;;;0.40;0.30;;;20.60;67.60;;;;;;5030000;28;20391;-73
2021/06/02 08:04:01;;;;;;;0.40;0.20;;;20.60;67.30;;;;;;5030612;28;20821;-72
2021/06/02 08:06:27;;;;;;;0.40;0.30;;;20.40;68.10;;;;;;5030650;28;20402;-75
2021/06/02 08:08:52;;;;;;;0.60;0.40;;;20.00;66.70;;;;;;5030066;28;20391;-73
2021/06/02 08:11:18;;;;;;;0.40;0.30;;;20.50;68.10;;;;;;5030310;28;20406;-72
2021/06/02 08:13:44;;;;;;;0.40;0.20;;;20.70;67.20;;;;;;5030117;28;20393;-73
2021/06/02 08:16:09;;;;;;;0.40;0.30;;;20.90;67.40;;;;;;5030469;28;20454;-73
2021/06/02 08:18:35;;;;;;;0.40;0.20;;;20.90;66.30;;;;;;5030496;28;20387;-73
2021/06/02 08:21:01;;;;;;;0.40;0.30;;;20.90;65.80;;;;;;5030619;28;20453;-72
2021/06/02 08:23:27;;;;;;;0.40;0.30;;;20.90;65.80;;;;;;5031156;28;20375;-73
2021/06/02 08:25:52;;;;;;;0.40;0.30;;;21.00;65.50;;;;;;5030191;28;20406;-72
2021/06/02 08:28:20;;;;;;;0.40;0.30;;;21.20;66.80;;;;;;5030558;28;20945;-73
2021/06/02 08:30:46;;;;;;;0.40;0.30;;;21.30;67.80;;;;;;5030124;28;20440;-73
2021/06/02 08:33:11;;;;;;;0.40;0.30;;;21.40;67.90;;;;;;5030777;28;20465;-72
2021/06/02 08:35:37;;;;;;;0.47;0.30;;;21.30;68.90;;;;;;5030502;28;20417;-72
2021/06/02 08:38:03;;;;;;;0.40;0.20;;;21.40;67.50;;;;;;5012900;28;20391;-73
2021/06/02 08:40:29;;;;;;;0.40;0.22;;;21.40;67.70;;;;;;5031074;28;20390;-73
2021/06/02 08:42:55;;;;;;;0.40;0.30;;;21.40;67.90;;;;;;5012449;28;20439;-74
2021/06/02 08:45:21;;;;;;;0.40;0.20;;;21.40;68.40;;;;;;5030714;28;20395;-72
2021/06/02 08:47:48;;;;;;;0.40;0.20;;;21.40;69.30;;;;;;5029694;28;20861;-72
2021/06/02 08:50:15;;;;;;;0.40;0.30;;;21.70;69.80;;;;;;5030312;28;20391;-72
2021/06/02 08:52:43;;;;;;;0.40;0.30;;;21.80;68.50;;;;;;5029793;28;20407;-72
2021/06/02 08:55:11;;;;;;;0.50;0.30;;;21.80;69.90;;;;;;5013144;28;20861;-72
2021/06/02 08:57:42;;;;;;;0.40;0.30;;;21.80;68.50;;;;;;5029606;28;20418;-73
2021/06/02 09:00:14;;;;;;;0.40;0.20;;;21.80;69.40;;;;;;5030646;28;20713;-73
2021/06/02 09:02:42;;;;;;;0.40;0.30;;;21.70;69.70;;;;;;5011587;28;20408;-73
2021/06/02 09:05:09;;;;;;;0.40;0.20;;;21.80;71.00;;;;;;5011121;28;20731;-72
2021/06/02 09:07:37;;;;;;;0.40;0.30;;;22.00;69.80;;;;;;5010196;28;20864;-72
2021/06/02 09:10:05;;;;;;;0.40;0.20;;;22.00;68.60;;;;;;5010673;28;20395;-72
2021/06/02 09:12:33;;;;;;;0.40;0.20;;;22.10;69.10;;;;;;5011567;28;20510;-73
2021/06/02 09:15:19;;;;;;;0.40;0.20;;;22.00;70.70;;;;;;4997188;28;20742;-72
2021/06/02 09:18:04;;;;;;;0.40;0.30;;;21.90;70.10;;;;;;5014179;28;20467;-72
2021/06/02 09:20:52;;;;;;;0.40;0.30;;;22.10;70.60;;;;;;5014569;28;20404;-72
2021/06/02 09:23:36;;;;;;;0.40;0.30;;;22.10;70.70;;;;;;4996785;28;20515;-72
2021/06/02 09:26:13;;;;;;;0.40;0.20;;;21.90;71.60;;;;;;5014182;28;20388;-72
2021/06/02 09:29:02;;;;;;;0.40;0.20;;;22.30;71.10;;;;;;5013268;28;20392;-72
2021/06/02 09:31:33;;;;;;;0.40;0.30;;;22.70;72.50;;;;;;5014197;28;20472;-72
2021/06/02 09:34:23;;;;;;;0.40;0.30;;;22.80;70.00;;;;;;5013529;28;20401;-72
2021/06/02 09:36:54;;;;;;;0.40;0.20;;;22.90;68.90;;;;;;5013080;28;20426;-73
2021/06/02 09:39:22;;;;;;;0.40;0.20;;;22.90;67.20;;;;;;5009219;28;20590;-74
2021/06/02 09:42:00;;;;;;;0.40;0.30;;;22.90;67.40;;;;;;4990875;28;21203;-76
2021/06/02 09:44:30;;;;;;;0.40;0.30;;;22.90;67.70;;;;;;5009202;28;20418;-76
2021/06/02 09:47:07;;;;;;;0.40;0.20;;;23.10;66.50;;;;;;5010179;28;20728;-73
2021/06/02 09:49:56;;;;;;;0.40;0.30;;;23.10;64.70;;;;;;5011557;28;20397;-78
2021/06/02 09:52:40;;;;;;;0.40;0.20;;;22.90;64.60;;;;;;5011647;28;20425;-73
2021/06/02 09:55:48;;;;;;;0.50;0.30;;;23.10;65.00;;;;;;5012125;28;20391;-73
2021/06/02 09:58:15;;;;;;;0.40;0.20;;;23.40;66.00;;;;;;4977035;28;20421;-75
2021/06/02 10:00:45;;;;;;;0.40;0.30;;;23.30;68.00;;;;;;5003077;28;20391;-75
2021/06/02 10:03:15;;;;;;;0.40;0.20;;;23.20;68.80;;;;;;5008187;28;20799;-73
2021/06/02 10:05:52;;;;;;;0.40;0.30;;;23.30;68.10;;;;;;5009739;28;20418;-75
2021/06/02 10:08:29;;;;;;;0.40;0.30;;;23.30;68.70;;;;;;5011012;28;20409;-74
2021/06/02 10:10:56;;;;;;;0.40;0.20;;;23.50;68.30;;;;;;5011055;28;20390;-74
2021/06/02 10:13:23;;;;;;;0.40;0.30;;;23.70;68.00;;;;;;5009578;28;20399;-75
2021/06/02 10:15:49;;;;;;;0.40;0.30;;;23.80;66.80;;;;;;5010719;28;20418;-79
2021/06/02 10:18:30;;;;;;;0.40;0.30;;;23.60;66.00;;;;;;4992985;28;20387;-74
2021/06/02 10:21:03;;;;;;;0.40;0.20;;;23.80;65.90;;;;;;5010584;28;21262;-75
2021/06/02 10:23:31;;;;;;;0.40;0.28;;;24.00;62.60;;;;;;5010546;28;20394;-76
2021/06/02 10:26:01;;;;;;;0.40;0.30;;;23.80;61.80;;;;;;5010094;28;20396;-74
2021/06/02 10:28:27;;;;;;;0.40;0.30;;;24.00;62.20;;;;;;4992704;28;20395;-73
2021/06/02 10:30:54;;;;;;;0.40;0.30;;;24.00;60.80;;;;;;5010464;28;20960;-73
2021/06/02 10:33:19;;;;;;;0.40;0.20;;;24.00;62.70;;;;;;5009419;28;21325;-73
2021/06/02 10:35:45;;;;;;;0.40;0.30;;;24.00;62.10;;;;;;5011229;28;20832;-74
2021/06/02 10:38:13;;;;;;;0.40;0.20;;;24.00;60.40;;;;;;5011717;28;20389;-72
2021/06/02 10:40:41;;;;;;;0.40;0.30;;;23.90;60.90;;;;;;5010674;28;20711;-74
2021/06/02 10:43:11;;;;;;;0.40;0.30;;;23.90;60.80;;;;;;5009049;28;20459;-73
2021/06/02 10:45:56;;;;;;;0.40;0.30;;;24.00;62.20;;;;;;5010189;28;20395;-76
2021/06/02 10:48:48;;;;;;;0.40;0.30;;;24.10;61.80;;;;;;5010219;28;20437;-74
2021/06/02 10:51:28;;;;;;;0.40;0.30;;;24.30;63.40;;;;;;5011259;28;20411;-75
2021/06/02 10:54:12;;;;;;;0.40;0.30;;;24.40;62.60;;;;;;5008252;28;20422;-73
2021/06/02 10:56:58;;;;;;;0.40;0.30;;;24.50;62.00;;;;;;5009139;28;20738;-74
2021/06/02 10:59:31;;;;;;;0.40;0.20;;;24.70;61.70;;;;;;4992745;28;20469;-76
2021/06/02 11:02:15;;;;;;;0.40;0.30;;;24.60;62.10;;;;;;5009887;28;20737;-76
2021/06/02 11:04:56;;;;;;;0.40;0.30;;;24.60;60.60;;;;;;5007811;28;20395;-73
2021/06/02 11:07:29;;;;;;;0.40;0.30;;;24.70;60.00;;;;;;5011367;28;20479;-73
2021/06/02 11:10:12;;;;;;;0.40;0.30;;;24.90;61.00;;;;;;4997339;28;20463;-74
2021/06/02 11:12:49;;;;;;;0.40;0.20;;;25.00;61.10;;;;;;5009920;28;20414;-76
2021/06/02 11:15:34;;;;;;;0.40;0.30;;;24.90;59.50;;;;;;5009935;28;20890;-76
2021/06/02 11:18:12;;;;;;;0.40;0.30;;;25.00;59.00;;;;;;5010372;28;20433;-73
2021/06/02 11:20:50;;;;;;;0.40;0.30;;;25.20;59.70;;;;;;5011705;28;20414;-75
2021/06/02 11:23:35;;;;;;;0.40;0.20;;;25.30;59.70;;;;;;5009734;28;20383;-72
2021/06/02 11:26:25;;;;;;;0.40;0.30;;;25.40;59.40;;;;;;5011116;28;20391;-73
2021/06/02 11:28:50;;;;;;;0.40;0.20;;;25.70;60.70;;;;;;5009441;28;20454;-75
2021/06/02 11:31:32;;;;;;;0.40;0.30;;;25.60;56.60;;;;;;5009449;28;20379;-73
2021/06/02 11:34:29;;;;;;;0.40;0.30;;;26.10;56.20;;;;;;5007892;28;20387;-73
2021/06/02 11:37:08;;;;;;;0.40;0.30;;;26.60;58.70;;;;;;5010908;28;20415;-75
2021/06/02 11:39:37;;;;;;;0.40;0.20;;;27.00;55.80;;;;;;4990662;28;21279;-73
2021/06/02 11:42:05;;;;;;;0.40;0.20;;;27.40;55.30;;;;;;5010417;28;20395;-72
2021/06/02 11:44:32;;;;;;;0.40;0.30;;;27.10;54.80;;;;;;5009475;28;20498;-73
2021/06/02 11:46:58;;;;;;;0.50;0.30;;;27.40;56.50;;;;;;5007797;28;20394;-72
2021/06/02 11:49:28;;;;;;;0.50;0.20;;;28.10;54.80;;;;;;5015168;28;20387;-80
2021/06/02 11:52:15;;;;;;;0.40;0.20;;;28.10;55.40;;;;;;5013687;28;20451;-75
2021/06/02 11:54:53;;;;;;;0.40;0.30;;;27.70;55.30;;;;;;5010129;28;20423;-76
2021/06/02 11:57:26;;;;;;;0.40;0.20;;;27.80;54.10;;;;;;4995899;28;20467;-76
2021/06/02 11:59:52;;;;;;;0.40;0.20;;;27.70;56.20;;;;;;4996123;28;20504;-76
2021/06/02 12:02:18;;;;;;;0.40;0.20;;;27.50;54.90;;;;;;4995720;28;20399;-75
2021/06/02 12:04:44;;;;;;;0.40;0.20;;;26.90;55.40;;;;;;5004091;28;20391;-79
2021/06/02 12:07:27;;;;;;;0.40;0.30;;;27.30;56.60;;;;;;5000668;28;20383;-76
2021/06/02 12:09:57;;;;;;;0.40;0.20;;;27.00;56.30;;;;;;4995710;28;20796;-75
2021/06/02 12:12:24;;;;;;;0.40;0.20;;;27.40;54.00;;;;;;5016908;28;20488;-75
2021/06/02 12:14:55;;;;;;;0.40;0.30;;;28.60;52.50;;;;;;5012686;28;20400;-79
2021/06/02 12:17:31;;;;;;;0.40;0.20;;;28.30;55.00;;;;;;5010771;28;20411;-73
2021/06/02 12:19:58;;;;;;;0.40;0.20;;;28.30;52.10;;;;;;4993686;28;20413;-77
2021/06/02 12:22:25;;;;;;;0.50;0.30;;;28.70;53.10;;;;;;5014785;28;20393;-78
2021/06/02 12:25:18;;;;;;;0.40;0.20;;;28.70;53.00;;;;;;5008216;28;20718;-77
2021/06/02 12:27:51;;;;;;;0.50;0.20;;;28.50;51.80;;;;;;5005279;28;20407;-79
2021/06/02 12:30:26;;;;;;;0.40;0.20;;;28.90;53.30;;;;;;5008687;28;20401;-78
2021/06/02 12:33:08;;;;;;;0.40;0.20;;;28.80;54.40;;;;;;5006563;28;20500;-76
2021/06/02 12:35:37;;;;;;;0.40;0.30;;;27.80;53.60;;;;;;5008199;28;20449;-76
2021/06/02 12:38:26;;;;;;;0.40;0.20;;;27.80;54.60;;;;;;5016608;28;20544;-77
2021/06/02 12:40:54;;;;;;;0.40;0.30;;;28.20;56.20;;;;;;4997319;28;20488;-78
2021/06/02 12:43:25;;;;;;;0.40;0.20;;;28.30;55.90;;;;;;5014207;28;20401;-80
2021/06/02 12:45:53;;;;;;;0.40;0.20;;;28.20;57.10;;;;;;5011307;28;20445;-77
2021/06/02 12:48:31;;;;;;;0.40;0.30;;;28.80;56.20;;;;;;4992988;28;20404;-77
2021/06/02 12:51:01;;;;;;;0.40;0.30;;;28.70;54.20;;;;;;4998358;28;20514;-78
2021/06/02 12:53:38;;;;;;;0.40;0.20;;;28.20;54.70;;;;;;4997733;28;20400;-76
2021/06/02 12:56:08;;;;;;;0.40;0.20;;;28.50;52.70;;;;;;4997627;28;20756;-77
2021/06/02 12:58:35;;;;;;;0.40;0.20;;;28.80;55.20;;;;;;5017890;28;20396;-78
2021/06/02 13:01:10;;;;;;;0.40;0.30;;;29.00;53.70;;;;;;5016807;28;21082;-76
2021/06/02 13:03:43;;;;;;;0.40;0.20;;;28.60;51.90;;;;;;5017884;28;20393;-76
2021/06/02 13:06:13;;;;;;;0.40;0.30;;;28.50;52.40;;;;;;5008099;28;20407;-76
2021/06/02 13:08:40;;;;;;;0.40;0.20;;;28.40;51.80;;;;;;5011049;28;20851;-76
2021/06/02 13:11:11;;;;;;;0.40;0.20;;;28.30;53.60;;;;;;5001153;28;20443;-76
2021/06/02 13:13:38;;;;;;;0.40;0.20;;;28.30;53.40;;;;;;5029773;28;20396;-81
2021/06/02 13:16:08;;;;;;;0.40;0.20;;;28.50;53.20;;;;;;5022665;28;20414;-75
2021/06/02 13:18:35;;;;;;;0.40;0.30;;;28.20;51.80;;;;;;5001104;28;20500;-76
2021/06/02 13:21:17;;;;;;;0.40;0.20;;;28.60;54.30;;;;;;5025954;28;20387;-75
2021/06/02 13:23:43;;;;;;;0.40;0.20;;;28.80;51.80;;;;;;5004103;28;20459;-78
2021/06/02 13:26:13;;;;;;;0.40;0.20;;;29.00;51.90;;;;;;5017560;28;20466;-75
2021/06/02 13:28:59;;;;;;;0.40;0.20;;;28.60;51.10;;;;;;5013332;28;20395;-78
2021/06/02 13:31:48;;;;;;;0.40;0.30;;;28.80;53.80;;;;;;5014051;28;20422;-75
2021/06/02 13:34:46;;;;;;;0.45;0.30;;;29.00;54.00;;;;;;5012337;28;20515;-77